Enter the Airport ICAO Code

Search by Airport or City

Current Weather

SPQT | Coronel FAP Francisco Secada Vignetta International Airport

Iquitos, Peru

Last Update 27 Minutes Ago

Mostly Cloudy Sky

Temperature of 23 ēC

Light Winds from NorthWest

Temperature

23 ēC

Dew Point Temperature

22 ēC

Relative Humidity

94.14 %

Wind Direction

NorthWest (310ē, Ranging from 270ē to 350ē)

Wind Velocity

6 km/h (03 kt)

Gusts

None

Visibility

Greater than 10 Kilometers

Sea Level Pressure

1014 hPa (Hectopascals)

Layers of Clouds

5% to 30% of Sky Covered from 152 mts (500 ft) Above Ground Level.

60% to 90% of Sky Covered from 3048 mts (10000 ft) Above Ground Level.

METAR SPQT 131200Z 31003KT 270V350 9999 FEW005 BKN100 23/22 Q1014 NOSIG RMK TN21.8 BIRD HAZARD RWY 06/24 PP000

Weather Forecast

SPQT | Coronel FAP Francisco Secada Vignetta International Airport

Iquitos, Peru

Forecast valid for the next 24 Hours

From now on it is expected:

Partly Cloudy Sky

Light to Moderate Winds from NorthEast

In 1 to 4 hours it is expected the begining of:

Mostly Cloudy Sky

Maximum Temperature

32 ēC in 8 Hours

Minimum Temperature

23 ēC in 23 Hours

TAF SPQT 131200Z 1312/1412 03005KT 9999 SCT008 SCT100 TX32/1320Z TN23/1411Z BECMG 1313/1316 BKN020 TEMPO 1409/1412 8000 SCT005 BKN100